createdAt,value
2022-11-02T00:02:17.736Z,4.10
2022-11-02T00:05:05.005Z,3.60
2022-11-02T00:07:53.105Z,3.20
2022-11-02T00:10:40.087Z,3.00
2022-11-02T00:13:27.072Z,3.10
2022-11-02T00:16:17.923Z,3.90
2022-11-02T00:19:04.938Z,3.37
2022-11-02T00:21:51.999Z,3.40
2022-11-02T00:24:38.973Z,3.13
2022-11-02T00:27:26.243Z,3.27
2022-11-02T00:30:14.022Z,3.43
2022-11-02T00:33:01.155Z,3.17
2022-11-02T00:35:48.417Z,3.10
2022-11-02T00:38:35.398Z,3.03
2022-11-02T00:41:22.472Z,3.27
2022-11-02T00:44:09.471Z,3.23
2022-11-02T00:46:56.664Z,3.07
2022-11-02T00:49:44.728Z,3.37
2022-11-02T00:52:31.861Z,2.70
2022-11-02T00:55:18.895Z,2.67
2022-11-02T00:58:06.223Z,2.90
2022-11-02T01:00:53.478Z,3.23
2022-11-02T01:03:40.539Z,2.90
2022-11-02T01:06:27.648Z,2.83
2022-11-02T01:09:15.809Z,2.50
2022-11-02T01:12:02.812Z,2.70
2022-11-02T01:14:50.366Z,2.90
2022-11-02T01:17:38.050Z,2.57
2022-11-02T01:20:25.131Z,2.37
2022-11-02T01:23:12.452Z,2.87
2022-11-02T01:26:03.530Z,2.27
2022-11-02T01:28:53.689Z,2.40
2022-11-02T01:31:40.678Z,2.17
2022-11-02T01:34:27.651Z,2.07
2022-11-02T01:37:14.632Z,2.20
2022-11-02T01:40:01.703Z,2.40
2022-11-02T01:42:48.673Z,1.93
2022-11-02T01:45:35.704Z,2.70
2022-11-02T01:48:29.590Z,2.87
2022-11-02T01:51:40.175Z,2.93
2022-11-02T01:54:31.145Z,3.30
2022-11-02T01:57:21.462Z,2.87
2022-11-02T02:00:12.593Z,2.10
2022-11-02T02:03:06.006Z,2.23
2022-11-02T02:06:05.538Z,2.10
2022-11-02T02:08:54.520Z,2.67
2022-11-02T02:11:41.757Z,2.20
2022-11-02T02:14:28.992Z,2.47
2022-11-02T02:17:32.393Z,2.40
2022-11-02T02:21:01.988Z,2.50
2022-11-02T02:23:57.488Z,2.23
2022-11-02T02:27:12.733Z,2.80
2022-11-02T02:30:09.403Z,2.50
2022-11-02T02:33:02.777Z,2.50
2022-11-02T02:35:58.988Z,2.40
2022-11-02T02:39:10.940Z,2.60
2022-11-02T02:42:08.850Z,2.30
2022-11-02T02:45:17.654Z,2.60
2022-11-02T02:48:20.209Z,2.50
2022-11-02T02:51:16.285Z,2.90
2022-11-02T02:54:09.560Z,2.83
2022-11-02T02:57:02.133Z,4.13
2022-11-02T02:59:49.532Z,3.00
2022-11-02T03:02:40.263Z,2.80
2022-11-02T03:05:36.042Z,3.60
2022-11-02T03:08:26.429Z,3.00
2022-11-02T03:11:17.031Z,4.07
2022-11-02T03:14:25.023Z,6.53
2022-11-02T03:17:28.652Z,4.33
2022-11-02T03:20:27.791Z,3.70
2022-11-02T03:23:30.929Z,4.73
2022-11-02T03:26:38.327Z,2.80
2022-11-02T03:29:42.343Z,3.03
2022-11-02T03:32:41.616Z,3.30
2022-11-02T03:35:34.063Z,2.60
2022-11-02T03:38:45.884Z,3.83
2022-11-02T03:41:38.323Z,3.60
2022-11-02T03:44:28.672Z,3.93
2022-11-02T03:47:19.175Z,4.57
2022-11-02T03:50:09.117Z,3.33
2022-11-02T03:53:06.250Z,4.43
2022-11-02T03:55:59.285Z,5.47
2022-11-02T03:58:46.324Z,4.50
2022-11-02T04:01:40.403Z,4.00
2022-11-02T04:04:27.809Z,4.23
2022-11-02T04:07:17.143Z,3.90
2022-11-02T04:10:04.442Z,4.13
2022-11-02T04:13:10.180Z,3.30
2022-11-02T04:15:57.630Z,3.90
2022-11-02T04:19:03.347Z,4.10
2022-11-02T04:22:10.113Z,4.47
2022-11-02T04:25:17.885Z,6.00
2022-11-02T04:28:11.017Z,5.47
2022-11-02T04:31:03.945Z,5.70
2022-11-02T04:33:59.578Z,5.30
2022-11-02T04:36:47.967Z,5.63
2022-11-02T04:39:35.282Z,5.73
2022-11-02T04:42:22.291Z,5.40
2022-11-02T04:45:17.383Z,5.50
2022-11-02T04:48:07.901Z,5.53
2022-11-02T04:50:55.420Z,4.27
2022-11-02T04:53:42.517Z,4.13
2022-11-02T04:56:30.664Z,4.30
2022-11-02T04:59:17.941Z,4.23
2022-11-02T05:02:05.969Z,5.00
2022-11-02T05:04:53.335Z,4.97
2022-11-02T05:07:40.387Z,4.47
2022-11-02T05:10:27.505Z,4.90
2022-11-02T05:13:16.720Z,5.20
2022-11-02T05:16:04.373Z,5.30
2022-11-02T05:18:51.869Z,5.47
2022-11-02T05:21:40.208Z,5.80
2022-11-02T05:24:27.833Z,5.60
2022-11-02T05:27:15.357Z,6.43
2022-11-02T05:30:05.794Z,7.07
2022-11-02T05:33:00.317Z,6.07
2022-11-02T05:35:48.259Z,6.73
2022-11-02T05:38:35.341Z,6.87
2022-11-02T05:41:23.783Z,6.90
2022-11-02T05:44:13.866Z,7.17
2022-11-02T05:47:00.911Z,6.73
2022-11-02T05:49:47.860Z,6.60
2022-11-02T05:52:35.208Z,8.13
2022-11-02T05:55:22.387Z,7.13
2022-11-02T05:58:09.377Z,7.20
2022-11-02T06:01:00.788Z,7.40
2022-11-02T06:03:53.194Z,7.37
2022-11-02T06:06:40.675Z,6.80
2022-11-02T06:09:27.663Z,7.10
2022-11-02T06:12:14.993Z,6.53
2022-11-02T06:15:02.419Z,7.33
2022-11-02T06:17:49.699Z,7.30
2022-11-02T06:20:36.777Z,6.77
2022-11-02T06:23:24.298Z,6.70
2022-11-02T06:26:12.682Z,6.80
2022-11-02T06:28:59.727Z,6.40
2022-11-02T06:31:46.830Z,6.03
2022-11-02T06:34:33.811Z,5.63
2022-11-02T06:37:20.897Z,5.67
2022-11-02T06:40:08.288Z,5.30
2022-11-02T06:43:15.489Z,5.27
2022-11-02T06:46:04.377Z,5.63
2022-11-02T06:48:51.428Z,6.03
2022-11-02T06:51:38.413Z,5.40
2022-11-02T06:54:25.465Z,5.70
2022-11-02T06:57:12.466Z,5.30
2022-11-02T07:00:04.933Z,4.83
2022-11-02T07:03:02.281Z,4.90
2022-11-02T07:05:53.806Z,5.03
2022-11-02T07:08:42.525Z,4.33
2022-11-02T07:11:30.253Z,4.73
2022-11-02T07:14:18.366Z,4.83
2022-11-02T07:17:06.190Z,5.07
2022-11-02T07:19:53.799Z,4.77
2022-11-02T07:22:41.573Z,4.57
2022-11-02T07:25:31.334Z,5.13
2022-11-02T07:28:19.371Z,4.90
2022-11-02T07:31:07.102Z,5.73
2022-11-02T07:33:54.852Z,6.20
2022-11-02T07:36:42.317Z,9.17
2022-11-02T07:39:29.863Z,5.67
2022-11-02T07:42:17.554Z,4.27
2022-11-02T07:45:06.459Z,4.67
2022-11-02T07:47:54.042Z,3.67
2022-11-02T07:50:41.516Z,3.80
2022-11-02T07:53:29.102Z,4.50
2022-11-02T07:56:16.698Z,3.90
2022-11-02T07:59:03.948Z,3.80
2022-11-02T08:01:51.104Z,4.20
2022-11-02T08:04:40.815Z,3.63
2022-11-02T08:07:31.058Z,4.17
2022-11-02T08:10:18.005Z,3.03
2022-11-02T08:13:05.052Z,3.77
2022-11-02T08:15:53.805Z,3.80
2022-11-02T08:18:41.155Z,3.50
2022-11-02T08:21:28.241Z,3.70
2022-11-02T08:24:15.277Z,3.00
2022-11-02T08:27:02.362Z,3.20
2022-11-02T08:29:49.371Z,3.40
2022-11-02T08:32:36.371Z,3.30
2022-11-02T08:35:23.614Z,3.20
2022-11-02T08:38:11.174Z,3.50
2022-11-02T08:40:58.249Z,3.30
2022-11-02T08:43:45.258Z,3.33
2022-11-02T08:46:32.329Z,2.97
2022-11-02T08:49:19.669Z,2.77
2022-11-02T08:52:06.634Z,2.90
2022-11-02T08:54:53.651Z,3.27
2022-11-02T08:57:57.930Z,3.20
2022-11-02T09:00:45.051Z,2.90
2022-11-02T09:03:32.102Z,3.33
2022-11-02T09:06:19.062Z,3.40
2022-11-02T09:09:06.049Z,2.93
2022-11-02T09:11:53.030Z,2.93
2022-11-02T09:14:40.009Z,3.07
2022-11-02T09:17:26.952Z,2.67
2022-11-02T09:20:14.976Z,2.37
2022-11-02T09:23:02.087Z,3.43
2022-11-02T09:25:49.947Z,3.50
2022-11-02T09:28:36.918Z,3.97
2022-11-02T09:31:24.688Z,3.90
2022-11-02T09:34:11.796Z,2.80
2022-11-02T09:36:58.750Z,3.13
2022-11-02T09:39:45.679Z,3.27
2022-11-02T09:42:45.870Z,3.83
2022-11-02T09:45:44.411Z,3.33
2022-11-02T09:48:35.762Z,2.87
2022-11-02T09:51:35.668Z,2.60
2022-11-02T09:54:41.858Z,2.50
2022-11-02T09:57:32.039Z,3.33
2022-11-02T10:00:19.084Z,2.23
2022-11-02T10:03:18.937Z,2.53
2022-11-02T10:06:15.609Z,3.17
2022-11-02T10:09:11.382Z,3.00
2022-11-02T10:12:40.299Z,3.00
2022-11-02T10:15:41.580Z,3.40
2022-11-02T10:18:32.725Z,3.40
2022-11-02T10:21:24.303Z,3.60
2022-11-02T10:24:39.245Z,4.53
2022-11-02T10:27:29.662Z,4.17
2022-11-02T10:30:19.579Z,3.50
2022-11-02T10:33:14.972Z,3.70
2022-11-02T10:36:29.197Z,3.43
2022-11-02T10:39:41.919Z,4.67
2022-11-02T10:42:47.535Z,4.53
2022-11-02T10:45:43.884Z,4.73
2022-11-02T10:49:01.164Z,4.47
2022-11-02T10:51:48.318Z,4.03
2022-11-02T10:54:35.298Z,5.60
2022-11-02T10:57:26.757Z,4.40
2022-11-02T11:00:32.902Z,4.33
2022-11-02T11:03:19.936Z,4.13
2022-11-02T11:06:12.357Z,3.57
2022-11-02T11:09:02.562Z,4.30
2022-11-02T11:11:52.634Z,3.43
2022-11-02T11:21:03.245Z,5.07
2022-11-02T11:23:50.244Z,3.60
2022-11-02T11:26:37.239Z,6.23
2022-11-02T11:29:24.342Z,3.70
2022-11-02T11:32:22.051Z,3.40
2022-11-02T11:35:17.316Z,2.77
2022-11-02T11:38:15.038Z,3.53
2022-11-02T11:41:03.805Z,3.17
2022-11-02T11:43:52.322Z,4.60
2022-11-02T11:46:43.146Z,3.50
2022-11-02T11:52:44.289Z,2.17
2022-11-02T11:55:32.048Z,2.13
2022-11-02T11:58:27.463Z,4.77
2022-11-02T12:01:17.722Z,3.60
2022-11-02T12:04:05.113Z,2.90
2022-11-02T12:07:06.639Z,2.30
2022-11-02T12:10:11.155Z,3.67
2022-11-02T12:13:33.586Z,2.00
2022-11-02T12:16:43.063Z,2.77
2022-11-02T12:19:54.165Z,2.30
2022-11-02T12:23:33.200Z,1.43
2022-11-02T12:26:36.296Z,3.07
2022-11-02T12:29:35.184Z,1.80
2022-11-02T12:33:21.009Z,2.30
2022-11-02T12:37:09.819Z,3.00
2022-11-02T12:39:56.634Z,1.90
2022-11-02T12:42:56.301Z,2.20
2022-11-02T12:45:49.421Z,1.63
2022-11-02T12:48:57.897Z,2.53
2022-11-02T12:51:57.175Z,1.47
2022-11-02T12:54:51.926Z,1.47
2022-11-02T12:57:39.530Z,1.30
2022-11-02T13:00:29.309Z,1.53
2022-11-02T13:03:35.689Z,1.77
2022-11-02T13:06:32.081Z,2.00
2022-11-02T13:09:32.849Z,3.80
2022-11-02T13:12:23.928Z,1.83
2022-11-02T13:15:17.446Z,2.57
2022-11-02T13:18:11.464Z,2.77
2022-11-02T13:21:02.469Z,1.70
2022-11-02T13:23:54.191Z,3.03
2022-11-02T13:26:43.896Z,2.83
2022-11-02T13:29:40.555Z,3.50
2022-11-02T13:32:41.746Z,3.07
2022-11-02T13:35:43.091Z,1.30
2022-11-02T13:38:41.143Z,2.90
2022-11-02T13:41:50.091Z,4.07
2022-11-02T13:44:55.795Z,1.80
2022-11-02T13:47:54.316Z,3.70
2022-11-02T13:50:50.772Z,3.40
2022-11-02T13:53:42.111Z,3.23
2022-11-02T13:56:30.125Z,1.57
2022-11-02T13:59:23.543Z,1.67
2022-11-02T14:02:16.416Z,2.53
2022-11-02T14:05:04.215Z,2.87
2022-11-02T14:07:51.457Z,4.27
2022-11-02T14:10:40.916Z,3.20
2022-11-02T14:13:54.038Z,2.30
2022-11-02T14:16:50.085Z,1.53
2022-11-02T14:19:40.135Z,2.03
2022-11-02T14:22:31.037Z,1.47
2022-11-02T14:25:18.404Z,1.20
2022-11-02T14:28:25.622Z,1.43
2022-11-02T14:31:15.756Z,1.67
2022-11-02T14:34:32.990Z,1.73
2022-11-02T14:37:37.249Z,1.57
2022-11-02T14:40:54.680Z,3.03
2022-11-02T14:44:16.549Z,1.13
2022-11-02T14:47:12.468Z,1.43
2022-11-02T14:50:15.675Z,1.37
2022-11-02T14:53:08.431Z,2.10
2022-11-02T14:55:56.826Z,3.87
2022-11-02T14:58:55.147Z,1.30
2022-11-02T15:01:58.021Z,1.80
2022-11-02T15:04:50.381Z,4.47
2022-11-02T15:07:41.421Z,1.77
2022-11-02T15:10:31.314Z,1.63
2022-11-02T15:13:18.200Z,2.50
2022-11-02T15:16:11.255Z,3.20
2022-11-02T15:19:36.879Z,1.73
2022-11-02T15:22:37.986Z,2.17
2022-11-02T15:25:33.518Z,1.30
2022-11-02T15:28:24.695Z,1.37
2022-11-02T15:31:23.276Z,1.80
2022-11-02T15:34:18.570Z,0.83
2022-11-02T15:37:06.925Z,2.10
2022-11-02T15:39:56.936Z,1.10
2022-11-02T15:42:49.429Z,2.53
2022-11-02T15:45:56.631Z,0.97
2022-11-02T15:48:59.571Z,1.53
2022-11-02T15:52:01.645Z,1.13
2022-11-02T15:55:03.932Z,2.50
2022-11-02T15:58:20.490Z,1.40
2022-11-02T16:01:22.816Z,1.80
2022-11-02T16:04:20.377Z,1.63
2022-11-02T16:07:09.117Z,1.20
2022-11-02T16:10:12.065Z,1.20
2022-11-02T16:13:20.587Z,2.50
2022-11-02T16:16:08.556Z,1.07
2022-11-02T16:18:57.308Z,1.23
2022-11-02T16:21:44.342Z,1.20
2022-11-02T16:24:32.271Z,1.10
2022-11-02T16:27:20.921Z,2.60
2022-11-02T16:30:18.177Z,2.13
2022-11-02T16:33:06.924Z,3.00
2022-11-02T16:35:54.279Z,2.00
2022-11-02T16:39:02.511Z,3.00
2022-11-02T16:41:52.439Z,1.57
2022-11-02T16:44:39.666Z,1.60
2022-11-02T16:47:37.610Z,0.90
2022-11-02T16:50:26.840Z,1.80
2022-11-02T16:53:29.011Z,3.13
2022-11-02T16:56:32.043Z,1.73
2022-11-02T16:59:19.329Z,1.77
2022-11-02T17:02:12.128Z,1.00
2022-11-02T17:05:04.388Z,0.93
2022-11-02T17:08:01.486Z,0.97
2022-11-02T17:10:55.856Z,2.43
2022-11-02T17:13:51.555Z,1.50
2022-11-02T17:16:59.668Z,0.97
2022-11-02T17:19:53.180Z,0.70
2022-11-02T17:22:57.528Z,1.00
2022-11-02T17:25:44.552Z,1.13
2022-11-02T17:28:45.587Z,0.77
2022-11-02T17:31:40.979Z,0.90
2022-11-02T17:34:28.575Z,0.80
2022-11-02T17:37:25.237Z,0.83
2022-11-02T17:40:12.876Z,1.27
2022-11-02T17:43:00.048Z,0.70
2022-11-02T17:45:57.109Z,1.10
2022-11-02T17:48:44.104Z,1.20
2022-11-02T17:51:31.111Z,0.90
2022-11-02T17:54:18.367Z,1.17
2022-11-02T17:57:12.751Z,4.30
2022-11-02T17:59:59.730Z,2.57
2022-11-02T18:02:57.631Z,2.50
2022-11-02T18:05:48.586Z,2.27
2022-11-02T18:08:56.614Z,3.67
2022-11-02T18:11:44.552Z,1.73
2022-11-02T18:14:31.888Z,1.80
2022-11-02T18:17:18.859Z,1.80
2022-11-02T18:20:06.373Z,1.70
2022-11-02T18:22:54.928Z,2.20
2022-11-02T18:25:42.099Z,1.80
2022-11-02T18:28:29.061Z,2.07
2022-11-02T18:31:16.128Z,2.83
2022-11-02T18:34:03.242Z,2.93
2022-11-02T18:36:50.306Z,2.10
2022-11-02T18:39:37.311Z,2.30
2022-11-02T18:42:24.578Z,1.70
2022-11-02T18:45:14.247Z,2.83
2022-11-02T18:48:01.906Z,2.20
2022-11-02T18:50:49.117Z,1.60
2022-11-02T18:53:36.524Z,1.40
2022-11-02T18:56:24.046Z,2.00
2022-11-02T18:59:11.044Z,2.17
2022-11-02T19:01:58.163Z,2.10
2022-11-02T19:04:45.184Z,2.07
2022-11-02T19:07:50.609Z,1.90
2022-11-02T19:10:37.689Z,2.33
2022-11-02T19:13:24.658Z,2.03
2022-11-02T19:16:11.653Z,2.60
2022-11-02T19:18:58.862Z,3.13
2022-11-02T19:21:46.121Z,2.77
2022-11-02T19:24:33.549Z,2.53
2022-11-02T19:27:24.989Z,2.20
2022-11-02T19:30:12.273Z,2.27
2022-11-02T19:32:59.299Z,3.03
2022-11-02T19:35:59.014Z,2.80
2022-11-02T19:38:45.999Z,3.20
2022-11-02T19:41:33.180Z,3.27
2022-11-02T19:44:20.836Z,3.53
2022-11-02T19:47:07.866Z,3.83
2022-11-02T19:49:54.976Z,3.60
2022-11-02T19:52:41.916Z,2.70
2022-11-02T19:55:29.690Z,2.90
2022-11-02T19:58:16.651Z,2.80
2022-11-02T20:01:16.050Z,3.93
2022-11-02T20:04:04.204Z,5.27
2022-11-02T20:06:51.239Z,3.60
2022-11-02T20:09:38.483Z,2.67
2022-11-02T20:12:26.354Z,2.50
2022-11-02T20:15:13.393Z,3.20
2022-11-02T20:18:18.437Z,2.67
2022-11-02T20:21:09.543Z,2.77
2022-11-02T20:23:57.360Z,2.73
2022-11-02T20:26:44.841Z,2.90
2022-11-02T20:29:32.124Z,3.03
2022-11-02T20:32:22.266Z,2.87
2022-11-02T20:35:13.404Z,3.27
2022-11-02T20:38:00.958Z,2.80
2022-11-02T20:40:48.083Z,2.60
2022-11-02T20:43:36.073Z,2.70
2022-11-02T20:46:42.437Z,3.77
2022-11-02T20:49:49.549Z,3.47
2022-11-02T20:52:38.333Z,4.63
2022-11-02T20:55:25.480Z,4.03
2022-11-02T20:58:12.682Z,3.67
2022-11-02T21:00:59.795Z,4.00
2022-11-02T21:03:46.949Z,3.90
2022-11-02T21:06:33.940Z,5.07
2022-11-02T21:09:20.900Z,5.03
2022-11-02T21:12:32.156Z,7.97
2022-11-02T21:15:19.166Z,7.90
2022-11-02T21:18:06.143Z,8.10
2022-11-02T21:20:53.194Z,5.93
2022-11-02T21:23:41.207Z,5.03
2022-11-02T21:26:28.420Z,7.90
2022-11-02T21:29:15.413Z,8.80
2022-11-02T21:32:02.457Z,7.90
2022-11-02T21:34:49.527Z,4.90
2022-11-02T21:37:36.800Z,4.93
2022-11-02T21:40:23.925Z,8.53
2022-11-02T21:43:10.881Z,6.13
2022-11-02T21:46:00.824Z,7.13
2022-11-02T21:48:48.347Z,4.70
2022-11-02T21:51:36.324Z,4.00
2022-11-02T21:54:23.300Z,4.20
2022-11-02T21:57:10.292Z,4.30
2022-11-02T21:59:57.454Z,3.10
2022-11-02T22:02:44.482Z,3.70
2022-11-02T22:05:50.078Z,3.00
2022-11-02T22:08:40.518Z,3.47
2022-11-02T22:11:27.902Z,3.40
2022-11-02T22:14:14.998Z,3.63
2022-11-02T22:17:04.720Z,3.23
2022-11-02T22:19:54.752Z,3.83
2022-11-02T22:22:42.359Z,3.47
2022-11-02T22:25:29.605Z,3.40
2022-11-02T22:28:16.599Z,3.10
2022-11-02T22:31:08.793Z,3.60
2022-11-02T22:33:57.812Z,3.27
2022-11-02T22:36:45.601Z,5.27
2022-11-02T22:39:32.570Z,3.70
2022-11-02T22:42:19.562Z,3.80
2022-11-02T22:45:08.962Z,3.80
2022-11-02T22:47:55.954Z,4.27
2022-11-02T22:50:44.038Z,3.97
2022-11-02T22:53:31.106Z,4.17
2022-11-02T22:56:19.794Z,4.23
2022-11-02T22:59:06.951Z,3.73
2022-11-02T23:01:54.077Z,3.70
2022-11-02T23:04:41.068Z,2.80
2022-11-02T23:07:28.032Z,2.77
2022-11-02T23:10:34.965Z,2.83
2022-11-02T23:13:22.821Z,2.97
2022-11-02T23:16:23.769Z,2.70
2022-11-02T23:19:29.874Z,2.90
2022-11-02T23:22:32.254Z,3.37
2022-11-02T23:25:19.269Z,3.13
2022-11-02T23:31:34.873Z,3.10
2022-11-02T23:34:21.805Z,3.27
2022-11-02T23:37:08.782Z,3.20
2022-11-02T23:39:56.056Z,3.50
2022-11-02T23:42:43.086Z,2.97
2022-11-02T23:45:30.012Z,3.53
2022-11-02T23:48:17.009Z,2.97
2022-11-02T23:51:22.585Z,2.50
2022-11-02T23:54:28.183Z,2.80
2022-11-02T23:57:15.214Z,2.47
